Time;durP1;ratioP1;P1;durP2;ratioP2;P2;SDS_P1;SDS_P2;PMS_P1;PMS_P2;Temp;Humidity;BMP_temperature;BMP_pressure;BME280_temperature;BME280_humidity;BME280_pressure;Samples;Min_cycle;Max_cycle;Signal;HPM_P1;HPM_P2
2024/04/13 00:00:45;;;;;;;5.18;2.90;;;;;;;;;;5378108;26;20003;-82
2024/04/13 00:03:11;;;;;;;4.00;2.60;;;;;;;;;;5367227;26;20032;-81
2024/04/13 00:05:36;;;;;;;4.80;2.70;;;;;;;;;;5362143;26;20018;-82
2024/04/13 00:08:02;;;;;;;4.40;2.47;;;;;;;;;;5362462;26;19992;-82
2024/04/13 00:10:30;;;;;;;6.18;2.90;;;;;;;;;;5388477;26;20012;-82
2024/04/13 00:12:55;;;;;;;5.00;2.90;;;;;;;;;;5362933;26;19995;-82
2024/04/13 00:15:21;;;;;;;5.28;2.67;;;;;;;;;;5360334;26;20015;-82
2024/04/13 00:17:46;;;;;;;3.22;2.40;;;;;;;;;;5369540;26;19996;-82
2024/04/13 00:20:11;;;;;;;5.47;2.80;;;;;;;;;;5372530;26;20016;-81
2024/04/13 00:22:37;;;;;;;4.72;2.50;;;;;;;;;;5364823;26;20073;-84
2024/04/13 00:25:03;;;;;;;4.70;2.85;;;;;;;;;;5360610;26;20000;-83
2024/04/13 00:27:29;;;;;;;4.50;2.40;;;;;;;;;;5369602;26;20004;-85
2024/04/13 00:29:54;;;;;;;4.32;2.60;;;;;;;;;;5395804;26;20040;-84
2024/04/13 00:32:20;;;;;;;4.05;2.30;;;;;;;;;;5370147;26;19999;-83
2024/04/13 00:34:47;;;;;;;4.43;2.33;;;;;;;;;;5399248;26;20011;-84
2024/04/13 00:37:13;;;;;;;3.75;2.35;;;;;;;;;;5360299;26;20005;-84
2024/04/13 00:39:38;;;;;;;4.30;2.20;;;;;;;;;;5361851;26;20448;-84
2024/04/13 00:42:05;;;;;;;5.18;2.22;;;;;;;;;;5362460;26;20397;-84
2024/04/13 00:44:30;;;;;;;4.72;2.15;;;;;;;;;;5368259;26;19997;-84
2024/04/13 00:47:05;;;;;;;4.43;2.38;;;;;;;;;;5356584;26;20101;-84
2024/04/13 00:49:36;;;;;;;3.85;2.28;;;;;;;;;;5385186;26;20073;-84
2024/04/13 00:52:05;;;;;;;5.38;2.72;;;;;;;;;;5362777;26;19996;-84
2024/04/13 00:54:34;;;;;;;3.40;2.15;;;;;;;;;;5395763;26;20452;-84
2024/04/13 00:57:00;;;;;;;5.35;2.35;;;;;;;;;;5395953;26;20010;-84
2024/04/13 00:59:26;;;;;;;4.40;2.13;;;;;;;;;;5397364;26;20004;-84
2024/04/13 01:01:52;;;;;;;3.72;2.33;;;;;;;;;;5344700;26;20014;-84
2024/04/13 01:04:21;;;;;;;3.88;2.42;;;;;;;;;;5389318;21;20009;-93
2024/04/13 01:06:54;;;;;;;3.92;2.22;;;;;;;;;;5439067;26;20016;-93
2024/04/13 01:09:22;;;;;;;4.60;2.40;;;;;;;;;;5402932;26;20338;-95
2024/04/13 01:11:48;;;;;;;12.90;2.60;;;;;;;;;;5438806;26;20015;-93
2024/04/13 01:14:14;;;;;;;4.70;2.33;;;;;;;;;;5407804;26;20007;-94
2024/04/13 01:16:40;;;;;;;6.88;2.47;;;;;;;;;;5407984;26;20029;-94
2024/04/13 01:19:05;;;;;;;5.00;2.28;;;;;;;;;;5408212;26;20000;-92
2024/04/13 01:21:31;;;;;;;3.92;2.22;;;;;;;;;;5435401;26;20020;-93
2024/04/13 01:24:04;;;;;;;3.67;1.98;;;;;;;;;;5399305;26;19996;-95
2024/04/13 01:26:37;;;;;;;3.45;2.00;;;;;;;;;;5396135;26;20008;-93
2024/04/13 01:29:05;;;;;;;4.28;2.13;;;;;;;;;;5428855;26;20098;-94
2024/04/13 01:31:34;;;;;;;5.30;2.20;;;;;;;;;;5395599;26;20454;-93
2024/04/13 01:34:02;;;;;;;3.17;2.00;;;;;;;;;;5401780;26;20077;-94
2024/04/13 01:36:36;;;;;;;4.00;2.20;;;;;;;;;;5386717;26;20004;-94
2024/04/13 01:39:09;;;;;;;4.47;2.08;;;;;;;;;;5358328;26;19997;-94
2024/04/13 01:41:38;;;;;;;3.35;1.98;;;;;;;;;;5402174;26;20464;-93
2024/04/13 01:44:05;;;;;;;4.10;1.90;;;;;;;;;;5399353;26;20008;-95
2024/04/13 01:46:37;;;;;;;3.75;2.00;;;;;;;;;;5430313;26;20380;-94
2024/04/13 01:49:06;;;;;;;3.90;1.88;;;;;;;;;;5400625;26;19996;-94
2024/04/13 01:51:32;;;;;;;3.80;1.80;;;;;;;;;;5400520;26;20012;-93
2024/04/13 01:53:58;;;;;;;2.50;1.55;;;;;;;;;;5405182;26;20001;-93
2024/04/13 01:56:23;;;;;;;4.38;1.85;;;;;;;;;;5414303;26;20067;-94
2024/04/13 01:58:49;;;;;;;4.65;1.85;;;;;;;;;;5402066;26;20059;-93
2024/04/13 02:01:15;;;;;;;2.60;1.73;;;;;;;;;;5370936;26;19997;-94
2024/04/13 02:03:41;;;;;;;3.70;1.83;;;;;;;;;;5405400;26;20019;-94
2024/04/13 02:06:08;;;;;;;3.58;2.00;;;;;;;;;;5405221;26;20090;-95
2024/04/13 02:08:35;;;;;;;3.17;1.83;;;;;;;;;;5403973;26;20341;-94
2024/04/13 02:11:01;;;;;;;3.75;1.98;;;;;;;;;;5392688;26;20458;-94
2024/04/13 02:13:27;;;;;;;4.97;2.05;;;;;;;;;;5400309;26;20062;-82
2024/04/13 02:15:54;;;;;;;5.72;2.45;;;;;;;;;;5376222;26;20000;-82
2024/04/13 02:18:20;;;;;;;3.92;1.95;;;;;;;;;;5369665;26;20088;-82
2024/04/13 02:20:45;;;;;;;4.28;2.20;;;;;;;;;;5370771;26;20380;-82
2024/04/13 02:23:11;;;;;;;3.88;2.25;;;;;;;;;;5368898;26;20001;-83
2024/04/13 02:25:36;;;;;;;3.50;2.30;;;;;;;;;;5360583;26;20035;-83
2024/04/13 02:28:04;;;;;;;7.90;2.45;;;;;;;;;;5363944;26;20008;-83
2024/04/13 02:30:30;;;;;;;5.65;2.45;;;;;;;;;;5362087;26;20374;-82
2024/04/13 02:32:57;;;;;;;4.63;2.63;;;;;;;;;;5363684;26;20004;-82
2024/04/13 02:35:23;;;;;;;4.15;2.42;;;;;;;;;;5368453;26;20004;-83
2024/04/13 02:37:48;;;;;;;3.83;2.28;;;;;;;;;;5397890;26;19997;-83
2024/04/13 02:40:16;;;;;;;3.92;2.10;;;;;;;;;;5366395;26;20013;-83
2024/04/13 02:42:43;;;;;;;3.80;2.05;;;;;;;;;;5362740;26;20477;-82
2024/04/13 02:45:10;;;;;;;4.07;2.08;;;;;;;;;;5395144;26;20000;-82
2024/04/13 02:47:35;;;;;;;3.67;2.33;;;;;;;;;;5362372;26;20013;-82
2024/04/13 02:50:01;;;;;;;3.92;2.13;;;;;;;;;;5399382;26;19996;-83
2024/04/13 02:52:28;;;;;;;5.00;2.45;;;;;;;;;;5405358;26;20475;-82
2024/04/13 02:54:53;;;;;;;5.10;2.40;;;;;;;;;;5426590;26;20028;-82
2024/04/13 02:57:19;;;;;;;4.07;2.45;;;;;;;;;;5363159;26;20089;-82
2024/04/13 02:59:44;;;;;;;4.00;2.40;;;;;;;;;;5370419;26;20008;-82
2024/04/13 03:02:12;;;;;;;4.30;2.80;;;;;;;;;;5365005;26;20023;-82
2024/04/13 03:04:37;;;;;;;4.95;2.67;;;;;;;;;;5395861;26;20004;-83
2024/04/13 03:07:03;;;;;;;4.03;2.60;;;;;;;;;;5361118;26;20114;-83
2024/04/13 03:09:29;;;;;;;5.78;3.05;;;;;;;;;;5360773;26;20081;-83
2024/04/13 03:11:56;;;;;;;4.82;2.88;;;;;;;;;;5357181;26;20362;-83
2024/04/13 03:14:22;;;;;;;4.38;3.05;;;;;;;;;;5356675;26;20013;-82
2024/04/13 03:16:47;;;;;;;4.43;2.95;;;;;;;;;;5364401;26;20042;-83
2024/04/13 03:19:15;;;;;;;5.65;3.45;;;;;;;;;;5357857;26;20036;-82
2024/04/13 03:21:41;;;;;;;5.93;3.00;;;;;;;;;;5356074;26;20033;-82
2024/04/13 03:24:06;;;;;;;4.78;3.00;;;;;;;;;;5357845;26;20027;-83
2024/04/13 03:26:31;;;;;;;6.03;3.33;;;;;;;;;;5395935;26;20040;-82
2024/04/13 03:28:57;;;;;;;5.97;3.15;;;;;;;;;;5355735;26;20019;-82
2024/04/13 03:31:22;;;;;;;5.10;3.33;;;;;;;;;;5353539;26;20079;-82
2024/04/13 03:33:48;;;;;;;5.53;3.55;;;;;;;;;;5444211;26;20069;-83
2024/04/13 03:36:14;;;;;;;5.15;3.30;;;;;;;;;;5369029;26;20014;-82
2024/04/13 03:38:40;;;;;;;4.85;3.40;;;;;;;;;;5391126;26;20334;-83
2024/04/13 03:41:06;;;;;;;5.32;3.55;;;;;;;;;;5394276;26;20001;-83
2024/04/13 03:43:36;;;;;;;6.15;3.30;;;;;;;;;;5361457;26;20005;-82
2024/04/13 03:46:03;;;;;;;5.75;3.40;;;;;;;;;;5354391;26;20015;-82
2024/04/13 03:48:28;;;;;;;6.40;3.53;;;;;;;;;;5354846;26;20016;-83
2024/04/13 03:50:54;;;;;;;5.20;3.25;;;;;;;;;;5359423;26;20335;-82
2024/04/13 03:53:19;;;;;;;6.35;3.20;;;;;;;;;;5362786;26;19997;-82
2024/04/13 03:55:45;;;;;;;6.05;3.40;;;;;;;;;;5358108;26;20408;-82
2024/04/13 03:58:11;;;;;;;6.32;3.72;;;;;;;;;;5359140;26;20017;-83
2024/04/13 04:00:36;;;;;;;6.00;3.53;;;;;;;;;;5355220;26;20000;-82
2024/04/13 04:03:01;;;;;;;7.55;3.80;;;;;;;;;;5357503;26;20015;-82
2024/04/13 04:05:27;;;;;;;6.00;3.47;;;;;;;;;;5358864;26;20004;-82
2024/04/13 04:07:53;;;;;;;4.97;3.47;;;;;;;;;;5360665;26;20344;-82
2024/04/13 04:10:18;;;;;;;6.43;3.90;;;;;;;;;;5358207;26;19996;-82
2024/04/13 04:12:44;;;;;;;5.35;3.80;;;;;;;;;;5356431;26;20019;-82
2024/04/13 04:15:09;;;;;;;8.48;4.03;;;;;;;;;;5355683;26;20860;-83
2024/04/13 04:17:35;;;;;;;6.68;4.03;;;;;;;;;;5394346;26;20466;-83
2024/04/13 04:20:00;;;;;;;7.00;3.90;;;;;;;;;;5358576;26;20016;-83
2024/04/13 04:22:28;;;;;;;6.68;4.20;;;;;;;;;;5355231;26;20009;-83
2024/04/13 04:24:54;;;;;;;6.32;3.95;;;;;;;;;;5393249;26;20065;-82
2024/04/13 04:27:20;;;;;;;6.28;3.90;;;;;;;;;;5390672;26;20008;-83
2024/04/13 04:29:46;;;;;;;8.50;4.38;;;;;;;;;;5357272;26;20020;-82
2024/04/13 04:32:12;;;;;;;5.70;4.05;;;;;;;;;;5351429;26;20011;-82
2024/04/13 04:34:38;;;;;;;6.35;4.20;;;;;;;;;;5356289;26;20015;-92
2024/04/13 04:37:03;;;;;;;6.65;4.30;;;;;;;;;;5393853;26;20008;-92
2024/04/13 04:39:29;;;;;;;6.07;3.97;;;;;;;;;;5394516;26;20354;-94
2024/04/13 04:41:55;;;;;;;6.68;4.40;;;;;;;;;;5396315;26;20004;-94
2024/04/13 04:44:21;;;;;;;6.78;4.30;;;;;;;;;;5392572;26;20012;-95
2024/04/13 04:46:47;;;;;;;6.93;4.55;;;;;;;;;;5426243;26;20004;-93
2024/04/13 04:49:13;;;;;;;7.28;4.60;;;;;;;;;;5395667;26;20008;-93
2024/04/13 04:51:38;;;;;;;8.68;4.85;;;;;;;;;;5358561;26;20363;-93
2024/04/13 04:54:04;;;;;;;7.28;4.45;;;;;;;;;;5394018;26;20023;-94
2024/04/13 04:56:31;;;;;;;8.25;4.47;;;;;;;;;;5390708;26;20410;-94
2024/04/13 04:58:56;;;;;;;7.18;4.90;;;;;;;;;;5425870;26;20028;-95
2024/04/13 05:01:22;;;;;;;6.90;4.75;;;;;;;;;;5397651;26;20736;-92
2024/04/13 05:03:50;;;;;;;7.10;4.38;;;;;;;;;;5389771;26;20095;-95
2024/04/13 05:06:18;;;;;;;8.82;4.88;;;;;;;;;;5395313;26;20016;-94
2024/04/13 05:08:45;;;;;;;7.47;4.57;;;;;;;;;;5422225;26;20023;-93
2024/04/13 05:11:11;;;;;;;10.63;5.25;;;;;;;;;;5396375;26;20045;-94
2024/04/13 05:13:37;;;;;;;7.97;4.88;;;;;;;;;;5392511;26;20021;-94
2024/04/13 05:16:05;;;;;;;7.68;5.05;;;;;;;;;;5394316;26;20553;-93
2024/04/13 05:18:30;;;;;;;8.90;5.32;;;;;;;;;;5391596;26;20012;-93
2024/04/13 05:20:55;;;;;;;9.73;6.10;;;;;;;;;;5392232;26;20619;-93
2024/04/13 05:23:21;;;;;;;8.82;5.28;;;;;;;;;;5397436;26;20016;-95
2024/04/13 05:25:47;;;;;;;8.88;5.82;;;;;;;;;;5396720;26;20021;-93
2024/04/13 05:28:12;;;;;;;11.05;6.30;;;;;;;;;;5398201;26;20000;-93
2024/04/13 05:30:38;;;;;;;11.35;6.05;;;;;;;;;;5402881;26;20011;-93
2024/04/13 05:33:04;;;;;;;8.23;5.85;;;;;;;;;;5408933;26;20000;-94
2024/04/13 05:35:30;;;;;;;10.05;6.30;;;;;;;;;;5409631;26;19996;-93
2024/04/13 05:37:55;;;;;;;8.63;6.40;;;;;;;;;;5458465;26;19996;-94
2024/04/13 05:40:24;;;;;;;9.02;6.50;;;;;;;;;;5409074;26;20006;-94
2024/04/13 05:42:51;;;;;;;10.13;7.13;;;;;;;;;;5408433;26;19997;-94
2024/04/13 05:45:16;;;;;;;11.77;7.32;;;;;;;;;;5407112;26;20069;-94
2024/04/13 05:47:43;;;;;;;11.70;7.55;;;;;;;;;;5405313;26;20411;-93
2024/04/13 05:50:11;;;;;;;13.10;7.80;;;;;;;;;;5395745;26;20012;-95
2024/04/13 05:52:37;;;;;;;11.43;7.28;;;;;;;;;;5407588;26;20012;-94
2024/04/13 05:55:02;;;;;;;12.45;7.57;;;;;;;;;;5409710;26;19996;-93
2024/04/13 05:57:29;;;;;;;11.57;7.72;;;;;;;;;;5409515;26;20004;-93
2024/04/13 05:59:54;;;;;;;10.15;7.25;;;;;;;;;;5408460;26;20008;-94
2024/04/13 06:02:20;;;;;;;12.00;7.68;;;;;;;;;;5409034;26;20076;-93
2024/04/13 06:04:45;;;;;;;11.13;7.57;;;;;;;;;;5401546;26;20017;-92
2024/04/13 06:07:11;;;;;;;10.05;7.53;;;;;;;;;;5409354;26;20004;-94
2024/04/13 06:09:36;;;;;;;13.32;7.65;;;;;;;;;;5404861;26;20008;-94
2024/04/13 06:12:02;;;;;;;11.25;7.82;;;;;;;;;;5396885;26;20027;-93
2024/04/13 06:14:27;;;;;;;11.57;7.53;;;;;;;;;;5392842;26;20082;-92
2024/04/13 06:16:53;;;;;;;11.80;7.85;;;;;;;;;;5393368;26;20001;-93
2024/04/13 06:19:18;;;;;;;11.40;7.82;;;;;;;;;;5400552;26;20083;-94
2024/04/13 06:21:44;;;;;;;10.90;7.68;;;;;;;;;;5411289;26;20011;-93
2024/04/13 06:24:10;;;;;;;10.95;7.63;;;;;;;;;;5406736;26;20005;-93
2024/04/13 06:26:35;;;;;;;11.60;7.88;;;;;;;;;;5403647;26;20046;-92
2024/04/13 06:29:00;;;;;;;10.82;7.68;;;;;;;;;;5394858;26;20015;-95
2024/04/13 06:31:26;;;;;;;12.73;7.72;;;;;;;;;;5406827;26;19995;-93
2024/04/13 06:33:51;;;;;;;9.73;7.03;;;;;;;;;;5388175;26;20000;-94
2024/04/13 06:36:20;;;;;;;10.75;6.88;;;;;;;;;;5402136;26;20015;-95
2024/04/13 06:38:46;;;;;;;10.20;7.40;;;;;;;;;;5407994;26;19996;-95
2024/04/13 06:41:11;;;;;;;11.43;8.10;;;;;;;;;;5406311;26;20004;-95
2024/04/13 06:43:37;;;;;;;9.15;7.63;;;;;;;;;;5403587;26;20024;-93
2024/04/13 06:46:05;;;;;;;11.32;8.27;;;;;;;;;;5395279;26;20085;-94
2024/04/13 06:48:30;;;;;;;11.15;7.75;;;;;;;;;;5393513;26;19996;-94
2024/04/13 06:50:56;;;;;;;11.25;8.50;;;;;;;;;;5395574;26;20001;-96
2024/04/13 06:53:23;;;;;;;11.43;8.20;;;;;;;;;;5399124;26;20069;-93
2024/04/13 06:55:48;;;;;;;11.35;8.23;;;;;;;;;;5388379;26;20036;-94
2024/04/13 06:58:14;;;;;;;12.43;8.02;;;;;;;;;;5396759;26;20401;-92
2024/04/13 07:00:39;;;;;;;13.30;8.05;;;;;;;;;;5407185;26;20011;-93
2024/04/13 07:03:05;;;;;;;11.43;8.00;;;;;;;;;;5401337;26;19997;-95
2024/04/13 07:05:33;;;;;;;11.60;8.73;;;;;;;;;;5405489;26;20019;-96
2024/04/13 07:08:02;;;;;;;12.65;7.93;;;;;;;;;;5401888;26;19996;-94
2024/04/13 07:10:31;;;;;;;12.10;8.77;;;;;;;;;;5406012;26;20006;-95
2024/04/13 07:12:58;;;;;;;16.10;8.77;;;;;;;;;;5447956;26;19998;-95
2024/04/13 07:15:24;;;;;;;11.73;8.40;;;;;;;;;;5412880;26;20013;-95
2024/04/13 07:17:50;;;;;;;12.05;8.43;;;;;;;;;;5413218;26;20069;-92
2024/04/13 07:20:15;;;;;;;11.07;8.35;;;;;;;;;;5411422;26;20019;-94
2024/04/13 07:22:41;;;;;;;11.95;8.50;;;;;;;;;;5412145;26;20005;-94
2024/04/13 07:25:07;;;;;;;10.75;8.38;;;;;;;;;;5409202;26;20072;-94
2024/04/13 07:27:32;;;;;;;12.63;7.90;;;;;;;;;;5406923;26;20003;-94
2024/04/13 07:29:58;;;;;;;12.23;8.05;;;;;;;;;;5406523;26;20005;-94
2024/04/13 07:32:24;;;;;;;12.50;8.75;;;;;;;;;;5402128;26;20128;-94
2024/04/13 07:34:52;;;;;;;12.18;8.13;;;;;;;;;;5427115;26;20004;-93
2024/04/13 07:37:18;;;;;;;10.48;8.15;;;;;;;;;;5410324;26;20933;-93
2024/04/13 07:39:46;;;;;;;9.85;7.75;;;;;;;;;;5410200;26;20004;-93
2024/04/13 07:42:12;;;;;;;11.20;7.72;;;;;;;;;;5414694;26;20000;-96
2024/04/13 07:44:42;;;;;;;13.48;8.60;;;;;;;;;;5440695;26;20021;-93
2024/04/13 07:47:08;;;;;;;15.88;8.98;;;;;;;;;;5410904;26;20005;-94
2024/04/13 07:49:33;;;;;;;9.93;7.35;;;;;;;;;;5412148;26;20343;-93
2024/04/13 07:52:00;;;;;;;10.27;7.68;;;;;;;;;;5394634;26;20024;-91
2024/04/13 07:54:25;;;;;;;10.55;7.15;;;;;;;;;;5408582;26;19996;-94
2024/04/13 07:56:51;;;;;;;10.10;7.15;;;;;;;;;;5412272;26;20003;-86
2024/04/13 07:59:16;;;;;;;10.20;7.70;;;;;;;;;;5369218;26;20031;-93
2024/04/13 08:01:42;;;;;;;9.05;7.13;;;;;;;;;;5432824;26;19997;-93
2024/04/13 08:04:07;;;;;;;9.73;7.00;;;;;;;;;;5408321;26;19992;-92
2024/04/13 08:06:33;;;;;;;9.80;8.10;;;;;;;;;;5441379;26;20073;-82
2024/04/13 08:08:58;;;;;;;12.23;8.63;;;;;;;;;;5371709;26;20360;-82
2024/04/13 08:11:24;;;;;;;11.73;7.75;;;;;;;;;;5364863;26;20058;-82
2024/04/13 08:13:49;;;;;;;9.93;7.78;;;;;;;;;;5363734;26;20008;-82
2024/04/13 08:16:15;;;;;;;11.57;7.57;;;;;;;;;;5369588;26;20354;-82
2024/04/13 08:18:40;;;;;;;13.65;8.57;;;;;;;;;;5371087;26;20366;-83
2024/04/13 08:21:05;;;;;;;10.52;7.40;;;;;;;;;;5370169;26;20003;-82
2024/04/13 08:23:31;;;;;;;11.88;7.82;;;;;;;;;;5367085;26;20043;-82
2024/04/13 08:26:03;;;;;;;11.65;8.65;;;;;;;;;;5368906;26;20000;-82
2024/04/13 08:28:29;;;;;;;11.40;8.98;;;;;;;;;;5359229;26;20465;-82
2024/04/13 08:30:55;;;;;;;13.52;9.20;;;;;;;;;;5368686;26;20004;-82
2024/04/13 08:33:20;;;;;;;11.27;9.38;;;;;;;;;;5369477;26;20016;-82
2024/04/13 08:35:46;;;;;;;15.38;9.90;;;;;;;;;;5365793;26;20008;-82
2024/04/13 08:38:12;;;;;;;12.55;8.80;;;;;;;;;;5407309;26;20041;-82
2024/04/13 08:40:45;;;;;;;12.57;9.25;;;;;;;;;;5363171;26;20000;-83
2024/04/13 08:43:10;;;;;;;13.75;8.88;;;;;;;;;;5363565;26;20005;-82
2024/04/13 08:45:36;;;;;;;13.43;9.68;;;;;;;;;;5370816;26;20016;-82
2024/04/13 08:48:02;;;;;;;13.48;9.40;;;;;;;;;;5370293;26;20007;-83
2024/04/13 08:50:28;;;;;;;12.95;8.85;;;;;;;;;;5367156;26;20040;-82
2024/04/13 08:52:53;;;;;;;13.95;9.23;;;;;;;;;;5369354;26;20012;-82
2024/04/13 08:55:20;;;;;;;13.95;8.77;;;;;;;;;;5369369;26;20009;-82
2024/04/13 08:57:46;;;;;;;13.88;8.85;;;;;;;;;;5368580;26;20008;-82
2024/04/13 09:00:19;;;;;;;12.45;8.50;;;;;;;;;;5369083;26;20028;-83
2024/04/13 09:02:44;;;;;;;14.55;9.00;;;;;;;;;;5368523;26;20451;-83
2024/04/13 09:05:11;;;;;;;14.55;9.77;;;;;;;;;;5368834;26;20007;-83
2024/04/13 09:07:37;;;;;;;10.90;7.38;;;;;;;;;;5365737;26;20000;-84
2024/04/13 09:10:04;;;;;;;14.27;8.30;;;;;;;;;;5372095;26;20000;-83
2024/04/13 09:12:30;;;;;;;12.02;8.20;;;;;;;;;;5371089;26;20011;-83
2024/04/13 09:14:57;;;;;;;13.90;9.30;;;;;;;;;;5405366;26;20020;-82
2024/04/13 09:17:24;;;;;;;12.63;8.45;;;;;;;;;;5402604;26;20318;-83
2024/04/13 09:19:50;;;;;;;16.45;8.15;;;;;;;;;;5369467;26;20080;-83
2024/04/13 09:22:16;;;;;;;13.63;8.32;;;;;;;;;;5362249;26;19997;-83
2024/04/13 09:24:45;;;;;;;12.48;8.85;;;;;;;;;;5369699;26;20036;-84
2024/04/13 09:27:17;;;;;;;11.88;7.53;;;;;;;;;;5402794;26;19997;-82
2024/04/13 09:29:43;;;;;;;13.20;8.60;;;;;;;;;;5369092;26;19996;-83
2024/04/13 09:32:09;;;;;;;10.60;7.32;;;;;;;;;;5368350;26;20004;-84
2024/04/13 09:34:37;;;;;;;11.00;6.57;;;;;;;;;;5365816;26;20054;-83
2024/04/13 09:37:10;;;;;;;10.27;6.63;;;;;;;;;;5367171;26;20015;-83
2024/04/13 09:39:36;;;;;;;10.23;7.00;;;;;;;;;;5426253;26;20061;-84
2024/04/13 09:42:12;;;;;;;10.25;6.80;;;;;;;;;;5369829;26;20443;-83
2024/04/13 09:44:40;;;;;;;11.35;6.90;;;;;;;;;;5362907;26;20374;-83
2024/04/13 09:47:06;;;;;;;12.23;6.75;;;;;;;;;;5353761;26;20392;-84
2024/04/13 09:49:31;;;;;;;13.98;7.05;;;;;;;;;;5362147;26;20000;-84
2024/04/13 09:51:57;;;;;;;12.27;6.97;;;;;;;;;;5376967;26;20004;-84
2024/04/13 09:54:27;;;;;;;12.05;7.13;;;;;;;;;;5373649;26;20001;-84
2024/04/13 09:56:53;;;;;;;12.18;6.38;;;;;;;;;;5357430;26;20008;-84
2024/04/13 09:59:21;;;;;;;10.23;6.15;;;;;;;;;;5367547;26;20048;-84
2024/04/13 10:01:49;;;;;;;10.57;6.13;;;;;;;;;;5367264;26;20407;-84
2024/04/13 10:04:15;;;;;;;11.65;6.10;;;;;;;;;;5367707;26;20009;-84
2024/04/13 10:06:42;;;;;;;11.07;5.60;;;;;;;;;;5363700;26;20831;-83
2024/04/13 10:09:12;;;;;;;9.73;5.60;;;;;;;;;;5354672;26;20001;-84
2024/04/13 10:11:44;;;;;;;8.25;5.72;;;;;;;;;;5368616;26;20011;-84
2024/04/13 10:14:12;;;;;;;8.60;5.35;;;;;;;;;;5362173;26;20067;-84
2024/04/13 10:16:41;;;;;;;8.02;5.75;;;;;;;;;;5365172;26;20086;-83
2024/04/13 10:19:09;;;;;;;8.05;4.82;;;;;;;;;;5367551;26;20000;-84
2024/04/13 10:21:35;;;;;;;8.57;4.97;;;;;;;;;;5370117;26;20000;-83
2024/04/13 10:24:00;;;;;;;10.35;5.25;;;;;;;;;;5366852;26;20863;-84
2024/04/13 10:26:27;;;;;;;8.95;4.82;;;;;;;;;;5404124;26;20416;-84
2024/04/13 10:28:57;;;;;;;7.82;4.60;;;;;;;;;;5368775;26;20011;-84
2024/04/13 10:31:27;;;;;;;9.45;4.90;;;;;;;;;;5397001;26;20460;-85
2024/04/13 10:33:53;;;;;;;8.35;4.93;;;;;;;;;;5363103;26;20001;-84
2024/04/13 10:36:33;;;;;;;8.20;5.28;;;;;;;;;;5373017;26;20008;-86
2024/04/13 10:39:01;;;;;;;10.32;5.03;;;;;;;;;;5362430;26;20001;-84
2024/04/13 10:41:37;;;;;;;8.82;4.38;;;;;;;;;;5366831;26;20004;-85
2024/04/13 10:44:04;;;;;;;8.48;5.47;;;;;;;;;;5370724;26;20007;-84
2024/04/13 10:46:30;;;;;;;8.20;4.43;;;;;;;;;;5370879;26;20008;-84
2024/04/13 10:48:56;;;;;;;6.70;4.40;;;;;;;;;;5360236;26;20049;-83
2024/04/13 10:51:22;;;;;;;8.65;4.15;;;;;;;;;;5368772;26;20004;-84
2024/04/13 10:53:48;;;;;;;6.45;4.15;;;;;;;;;;5369989;26;19996;-84
2024/04/13 10:56:14;;;;;;;8.63;4.13;;;;;;;;;;5367870;26;20365;-84
2024/04/13 10:58:43;;;;;;;7.07;4.18;;;;;;;;;;5401133;26;19997;-84
2024/04/13 11:01:08;;;;;;;6.80;4.30;;;;;;;;;;5353829;26;19996;-84
2024/04/13 11:03:34;;;;;;;7.30;3.80;;;;;;;;;;5389697;26;20001;-85
2024/04/13 11:06:00;;;;;;;8.13;3.83;;;;;;;;;;5402312;26;20001;-78
2024/04/13 11:08:26;;;;;;;6.15;3.60;;;;;;;;;;5369672;26;20338;-78
2024/04/13 11:10:56;;;;;;;6.18;3.30;;;;;;;;;;5366824;26;20495;-78
2024/04/13 11:13:23;;;;;;;9.00;3.53;;;;;;;;;;5396197;26;19998;-78
2024/04/13 11:15:49;;;;;;;6.38;3.60;;;;;;;;;;5372356;26;20012;-79
2024/04/13 11:18:14;;;;;;;6.45;3.75;;;;;;;;;;5409935;26;19996;-78
2024/04/13 11:20:41;;;;;;;8.05;3.65;;;;;;;;;;5404902;26;20077;-78
2024/04/13 11:23:07;;;;;;;6.85;3.30;;;;;;;;;;5397805;26;19997;-78
2024/04/13 11:25:34;;;;;;;7.18;3.72;;;;;;;;;;5427335;26;20016;-78
2024/04/13 11:28:00;;;;;;;6.32;3.05;;;;;;;;;;5357096;26;20028;-79
2024/04/13 11:30:25;;;;;;;7.30;3.42;;;;;;;;;;5387026;26;20019;-79
2024/04/13 11:32:51;;;;;;;6.10;2.70;;;;;;;;;;5408440;26;20001;-79
2024/04/13 11:35:17;;;;;;;5.50;2.63;;;;;;;;;;5404333;26;20005;-79
2024/04/13 11:38:00;;;;;;;4.28;2.35;;;;;;;;;;5407388;26;20030;-78
2024/04/13 11:40:37;;;;;;;6.20;2.83;;;;;;;;;;5406542;26;20004;-78
2024/04/13 11:43:03;;;;;;;6.38;3.10;;;;;;;;;;5390962;26;20005;-79
2024/04/13 11:45:32;;;;;;;4.75;2.60;;;;;;;;;;5398353;26;20001;-78
2024/04/13 11:47:59;;;;;;;5.82;2.70;;;;;;;;;;5387900;26;20007;-80
2024/04/13 11:50:24;;;;;;;6.55;2.80;;;;;;;;;;5401589;26;20048;-79
2024/04/13 11:52:50;;;;;;;6.80;2.78;;;;;;;;;;5372718;26;20373;-79
2024/04/13 11:55:23;;;;;;;6.40;2.70;;;;;;;;;;5399329;26;20002;-79
2024/04/13 11:57:49;;;;;;;8.18;2.63;;;;;;;;;;5434125;26;20025;-79
2024/04/13 12:00:16;;;;;;;7.68;2.97;;;;;;;;;;5371072;26;20016;-79
2024/04/13 12:02:43;;;;;;;7.15;3.33;;;;;;;;;;5389556;26;20001;-79
2024/04/13 12:05:09;;;;;;;6.18;3.30;;;;;;;;;;5377372;26;20690;-79
2024/04/13 12:07:34;;;;;;;7.55;2.88;;;;;;;;;;5402812;26;19996;-78
2024/04/13 12:10:00;;;;;;;7.93;2.90;;;;;;;;;;5370549;26;20004;-79
2024/04/13 12:12:25;;;;;;;6.72;3.00;;;;;;;;;;5394637;26;20001;-79
2024/04/13 12:14:52;;;;;;;5.75;2.88;;;;;;;;;;5437091;26;20005;-79
2024/04/13 12:17:18;;;;;;;5.20;2.80;;;;;;;;;;5389553;26;20484;-79
2024/04/13 12:19:44;;;;;;;5.00;2.50;;;;;;;;;;5402391;26;20000;-79
2024/04/13 12:22:09;;;;;;;4.90;2.90;;;;;;;;;;5364675;26;20000;-79
2024/04/13 12:24:35;;;;;;;5.05;2.60;;;;;;;;;;5379774;26;20822;-79
2024/04/13 12:27:01;;;;;;;5.57;2.33;;;;;;;;;;5380348;26;20004;-79
2024/04/13 12:29:26;;;;;;;4.93;1.95;;;;;;;;;;5363309;26;20073;-80
2024/04/13 12:31:52;;;;;;;7.10;2.30;;;;;;;;;;5355960;26;20023;-79
2024/04/13 12:34:17;;;;;;;5.93;2.20;;;;;;;;;;5398091;26;20379;-79
2024/04/13 12:36:43;;;;;;;4.63;2.03;;;;;;;;;;5359882;26;20048;-78
2024/04/13 12:39:10;;;;;;;6.70;1.98;;;;;;;;;;5381029;26;19992;-78
2024/04/13 12:41:36;;;;;;;8.15;1.92;;;;;;;;;;5385257;26;20001;-79
2024/04/13 12:44:02;;;;;;;4.97;2.40;;;;;;;;;;5358841;26;20008;-79
2024/04/13 12:46:29;;;;;;;4.78;2.40;;;;;;;;;;5386458;26;20073;-78
2024/04/13 12:48:55;;;;;;;3.55;2.15;;;;;;;;;;5358638;26;20000;-78
2024/04/13 12:51:25;;;;;;;4.50;2.08;;;;;;;;;;5359097;26;20473;-79
2024/04/13 12:53:50;;;;;;;3.47;1.95;;;;;;;;;;5402559;26;20047;-78
2024/04/13 12:56:15;;;;;;;5.03;2.25;;;;;;;;;;5393636;26;19996;-78
2024/04/13 12:58:41;;;;;;;5.15;2.15;;;;;;;;;;5350946;26;20005;-79
2024/04/13 13:01:07;;;;;;;4.45;2.25;;;;;;;;;;5424323;26;20005;-79
2024/04/13 13:03:32;;;;;;;5.30;2.03;;;;;;;;;;5387164;26;20005;-78
2024/04/13 13:05:58;;;;;;;6.20;2.33;;;;;;;;;;5355864;26;20001;-78
2024/04/13 13:08:23;;;;;;;4.50;2.20;;;;;;;;;;5387155;26;20048;-79
2024/04/13 13:10:49;;;;;;;5.47;1.98;;;;;;;;;;5359147;26;20237;-79
2024/04/13 13:13:14;;;;;;;5.35;2.50;;;;;;;;;;5356671;26;20008;-79
2024/04/13 13:15:40;;;;;;;6.80;2.50;;;;;;;;;;5349419;26;20000;-79
2024/04/13 13:18:05;;;;;;;3.40;1.95;;;;;;;;;;5350547;26;19996;-79
2024/04/13 13:20:31;;;;;;;6.65;2.28;;;;;;;;;;5352481;26;20040;-79
2024/04/13 13:22:56;;;;;;;4.80;2.10;;;;;;;;;;5408939;26;20008;-79
2024/04/13 13:25:22;;;;;;;4.15;2.00;;;;;;;;;;5377950;26;20004;-79
2024/04/13 13:27:47;;;;;;;4.60;1.83;;;;;;;;;;5394025;26;20428;-78
2024/04/13 13:30:13;;;;;;;6.68;2.40;;;;;;;;;;5352199;26;19996;-78
2024/04/13 13:32:38;;;;;;;6.55;2.38;;;;;;;;;;5371133;26;20462;-78
2024/04/13 13:35:04;;;;;;;7.03;2.70;;;;;;;;;;5389701;26;20147;-78
2024/04/13 13:37:31;;;;;;;4.07;2.45;;;;;;;;;;5388282;26;20027;-78
2024/04/13 13:39:57;;;;;;;7.50;2.70;;;;;;;;;;5400918;26;20011;-80
2024/04/13 13:42:22;;;;;;;6.78;2.97;;;;;;;;;;5366522;26;20008;-79
2024/04/13 13:44:48;;;;;;;6.68;2.70;;;;;;;;;;5404027;26;20028;-79
2024/04/13 13:47:13;;;;;;;8.40;2.45;;;;;;;;;;5369035;26;20000;-79
2024/04/13 13:49:38;;;;;;;5.55;2.63;;;;;;;;;;5402359;26;20016;-79
2024/04/13 13:52:04;;;;;;;4.68;2.60;;;;;;;;;;5354922;26;20377;-79
2024/04/13 13:54:29;;;;;;;3.70;2.22;;;;;;;;;;5367394;26;20005;-81
2024/04/13 13:56:54;;;;;;;6.00;2.83;;;;;;;;;;5370719;26;20462;-81
2024/04/13 13:59:20;;;;;;;7.45;2.88;;;;;;;;;;5372047;26;20072;-80
2024/04/13 14:01:48;;;;;;;4.43;2.78;;;;;;;;;;5370547;26;20012;-80
2024/04/13 14:04:14;;;;;;;8.57;2.50;;;;;;;;;;5369493;26;20001;-80
2024/04/13 14:06:40;;;;;;;5.60;2.80;;;;;;;;;;5402863;26;20459;-80
2024/04/13 14:09:05;;;;;;;5.78;2.72;;;;;;;;;;5358232;26;20479;-81
2024/04/13 14:11:30;;;;;;;7.22;2.30;;;;;;;;;;5400132;26;20001;-80
2024/04/13 14:13:57;;;;;;;4.95;2.40;;;;;;;;;;5372690;26;20011;-80
2024/04/13 14:16:23;;;;;;;3.65;2.22;;;;;;;;;;5374614;26;20349;-80
2024/04/13 14:18:48;;;;;;;6.50;2.53;;;;;;;;;;5410315;26;20073;-81
2024/04/13 14:21:14;;;;;;;3.90;2.20;;;;;;;;;;5373525;26;20012;-80
2024/04/13 14:23:39;;;;;;;7.55;2.28;;;;;;;;;;5354011;26;20070;-81
2024/04/13 14:26:05;;;;;;;4.82;2.58;;;;;;;;;;5367703;26;20363;-80
2024/04/13 14:28:30;;;;;;;4.60;2.20;;;;;;;;;;5368378;26;20007;-81
2024/04/13 14:30:55;;;;;;;5.97;2.28;;;;;;;;;;5415907;26;20003;-80
2024/04/13 14:33:21;;;;;;;3.75;2.15;;;;;;;;;;5390488;26;19992;-81